createdAt,value
2023-05-09T00:00:56.783Z,100774.53
2023-05-09T00:02:00.545Z,100771.06
2023-05-09T00:03:04.281Z,100777.66
2023-05-09T00:04:08.148Z,100781.63
2023-05-09T00:05:11.881Z,100772.69
2023-05-09T00:06:15.932Z,100772.34
2023-05-09T00:07:19.621Z,100772.25
2023-05-09T00:08:23.306Z,100777.53
2023-05-09T00:09:27.073Z,100771.91
2023-05-09T00:10:30.850Z,100779.91
2023-05-09T00:11:36.370Z,100786.34
2023-05-09T00:12:40.117Z,100786.09
2023-05-09T00:13:43.763Z,100775.78
2023-05-09T00:14:47.423Z,100793.00
2023-05-09T00:15:51.224Z,100788.63
2023-05-09T00:16:55.111Z,100796.22
2023-05-09T00:17:58.930Z,100802.97
2023-05-09T00:19:02.558Z,100805.06
2023-05-09T00:20:08.038Z,100806.31
2023-05-09T00:21:11.936Z,100802.03
2023-05-09T00:22:15.689Z,100817.91
2023-05-09T00:23:19.461Z,100804.78
2023-05-09T00:24:23.125Z,100811.13
2023-05-09T00:25:27.066Z,100815.06
2023-05-09T00:26:30.741Z,100816.28
2023-05-09T00:27:36.336Z,100816.75
2023-05-09T00:28:40.006Z,100823.56
2023-05-09T00:29:43.777Z,100815.94
2023-05-09T00:30:47.465Z,100818.50
2023-05-09T00:31:51.246Z,100822.09
2023-05-09T00:32:55.255Z,100828.88
2023-05-09T00:33:59.019Z,100826.19
2023-05-09T00:35:02.873Z,100821.28
2023-05-09T00:36:07.035Z,100835.75
2023-05-09T00:37:10.631Z,100836.22
2023-05-09T00:38:14.287Z,100849.69
2023-05-09T00:39:17.927Z,100839.44
2023-05-09T00:40:21.722Z,100836.69
2023-05-09T00:41:25.389Z,100843.91
2023-05-09T00:42:29.215Z,100846.00
2023-05-09T00:43:34.606Z,100848.88
2023-05-09T00:44:38.515Z,100847.72
2023-05-09T00:45:42.705Z,100857.91
2023-05-09T00:46:46.479Z,100853.13
2023-05-09T00:47:50.289Z,100863.34
2023-05-09T00:48:54.138Z,100863.09
2023-05-09T00:49:59.049Z,100866.78
2023-05-09T00:51:02.708Z,100860.19
2023-05-09T00:52:06.783Z,100857.88
2023-05-09T00:53:11.012Z,100863.41
2023-05-09T00:54:15.144Z,100862.94
2023-05-09T00:55:19.635Z,100848.47
2023-05-09T00:56:23.377Z,100864.56
2023-05-09T00:57:27.061Z,100871.88
2023-05-09T00:58:31.332Z,100866.03
2023-05-09T00:59:36.909Z,100864.66
2023-05-09T01:00:40.687Z,100861.44
2023-05-09T01:01:44.417Z,100870.53
2023-05-09T01:02:51.700Z,100857.06
2023-05-09T01:03:55.883Z,100853.66
2023-05-09T01:04:59.910Z,100856.28
2023-05-09T01:06:08.024Z,100867.09
2023-05-09T01:07:19.880Z,100866.81
2023-05-09T01:08:35.258Z,100859.81
2023-05-09T01:09:46.762Z,100858.19
2023-05-09T01:10:58.476Z,100862.44
2023-05-09T01:12:14.625Z,100867.97
2023-05-09T01:13:31.009Z,100862.91
2023-05-09T01:14:42.768Z,100874.75
2023-05-09T01:16:02.154Z,100886.28
2023-05-09T01:17:12.231Z,100875.56
2023-05-09T01:18:22.281Z,100884.31
2023-05-09T01:19:57.872Z,100883.97
2023-05-09T01:21:07.300Z,100891.00
2023-05-09T01:22:15.331Z,100885.00
2023-05-09T01:24:06.111Z,100886.50
2023-05-09T01:25:33.946Z,100891.34
2023-05-09T01:26:45.254Z,100886.28
2023-05-09T01:27:58.452Z,100889.84
2023-05-09T01:29:43.204Z,100892.03
2023-05-09T01:30:49.975Z,100880.97
2023-05-09T01:31:56.587Z,100887.16
2023-05-09T01:33:03.068Z,100887.66
2023-05-09T01:34:08.035Z,100892.13
2023-05-09T01:35:14.471Z,100885.88
2023-05-09T01:36:20.472Z,100885.88
2023-05-09T01:37:30.038Z,100874.50
2023-05-09T01:38:35.472Z,100857.59
2023-05-09T01:39:41.596Z,100875.41
2023-05-09T01:40:48.597Z,100877.47
2023-05-09T01:41:54.663Z,100878.72
2023-05-09T01:43:02.129Z,100875.59
2023-05-09T01:44:09.059Z,100873.63
2023-05-09T01:45:16.445Z,100864.00
2023-05-09T01:46:22.742Z,100870.63
2023-05-09T01:47:27.051Z,100873.47
2023-05-09T01:48:32.154Z,100875.09
2023-05-09T01:49:38.622Z,100875.53
2023-05-09T01:50:44.256Z,100874.03
2023-05-09T01:51:49.259Z,100874.03
2023-05-09T01:52:57.209Z,100877.16
2023-05-09T01:54:02.759Z,100870.09
2023-05-09T01:55:08.018Z,100865.19
2023-05-09T01:56:12.945Z,100866.63
2023-05-09T01:57:18.192Z,100876.88
2023-05-09T01:58:23.316Z,100870.38
2023-05-09T01:59:28.243Z,100868.75
2023-05-09T02:00:34.204Z,100864.50
2023-05-09T02:01:38.231Z,100872.44
2023-05-09T02:02:42.533Z,100864.03
2023-05-09T02:03:48.270Z,100867.72
2023-05-09T02:04:52.521Z,100876.81
2023-05-09T02:05:57.714Z,100869.66
2023-05-09T02:07:03.492Z,100876.34
2023-05-09T02:08:07.861Z,100870.09
2023-05-09T02:09:12.093Z,100883.22
2023-05-09T02:10:17.335Z,100874.63
2023-05-09T02:11:21.143Z,100867.41
2023-05-09T02:12:25.270Z,100877.59
2023-05-09T02:13:29.080Z,100874.13
2023-05-09T02:14:33.101Z,100877.44
2023-05-09T02:15:38.974Z,100880.22
2023-05-09T02:16:43.050Z,100887.69
2023-05-09T02:17:46.858Z,100884.94
2023-05-09T02:18:50.512Z,100887.94
2023-05-09T02:19:54.107Z,100886.78
2023-05-09T02:20:57.778Z,100892.31
2023-05-09T02:22:01.800Z,100885.75
2023-05-09T02:23:05.930Z,100893.34
2023-05-09T02:24:09.885Z,100898.16
2023-05-09T02:25:14.236Z,100903.06
2023-05-09T02:26:18.486Z,100897.13
2023-05-09T02:27:22.872Z,100908.25
2023-05-09T02:28:28.169Z,100882.03
2023-05-09T02:29:35.346Z,100903.69
2023-05-09T02:30:43.776Z,100902.53
2023-05-09T02:31:49.429Z,100892.00
2023-05-09T02:32:57.484Z,100896.84
2023-05-09T02:34:03.123Z,100895.50
2023-05-09T02:35:09.535Z,100896.31
2023-05-09T02:36:15.002Z,100894.34
2023-05-09T02:37:19.689Z,100898.84
2023-05-09T02:38:23.717Z,100889.19
2023-05-09T02:39:27.470Z,100890.53
2023-05-09T02:40:31.831Z,100894.19
2023-05-09T02:41:35.523Z,100895.78
2023-05-09T02:42:39.257Z,100893.94
2023-05-09T02:43:43.194Z,100889.72
2023-05-09T02:44:47.174Z,100867.75
2023-05-09T02:45:52.708Z,100887.66
2023-05-09T02:46:56.461Z,100895.81
2023-05-09T02:48:00.344Z,100895.91
2023-05-09T02:49:04.206Z,100894.41
2023-05-09T02:50:09.107Z,100897.22
2023-05-09T02:51:12.742Z,100897.50
2023-05-09T02:52:16.355Z,100883.22
2023-05-09T02:53:20.074Z,100897.31
2023-05-09T02:54:23.780Z,100876.44
2023-05-09T02:55:27.692Z,100895.81
2023-05-09T02:56:31.439Z,100901.41
2023-05-09T02:57:35.085Z,100890.66
2023-05-09T02:58:38.915Z,100890.63
2023-05-09T02:59:42.509Z,100891.88
2023-05-09T03:00:46.196Z,100890.63
2023-05-09T03:01:51.557Z,100894.66
2023-05-09T03:02:55.284Z,100891.69
2023-05-09T03:03:59.093Z,100887.06
2023-05-09T03:05:02.961Z,100886.00
2023-05-09T03:06:06.903Z,100881.88
2023-05-09T03:07:10.582Z,100872.88
2023-05-09T03:08:14.279Z,100874.13
2023-05-09T03:09:17.976Z,100873.84
2023-05-09T03:10:21.696Z,100867.94
2023-05-09T03:11:25.469Z,100867.25
2023-05-09T03:12:29.078Z,100870.97
2023-05-09T03:13:32.810Z,100863.19
2023-05-09T03:14:36.482Z,100859.53
2023-05-09T03:15:40.181Z,100863.53
2023-05-09T03:16:43.870Z,100856.22
2023-05-09T03:17:49.288Z,100858.34
2023-05-09T03:18:52.985Z,100855.78
2023-05-09T03:19:56.668Z,100840.06
2023-05-09T03:21:00.375Z,100852.81
2023-05-09T03:22:04.167Z,100853.41
2023-05-09T03:23:07.960Z,100858.59
2023-05-09T03:24:11.983Z,100855.59
2023-05-09T03:25:15.888Z,100851.22
2023-05-09T03:26:19.667Z,100855.47
2023-05-09T03:27:23.274Z,100840.81
2023-05-09T03:28:26.923Z,100846.56
2023-05-09T03:29:30.558Z,100849.22
2023-05-09T03:30:34.219Z,100842.66
2023-05-09T03:31:37.925Z,100842.94
2023-05-09T03:32:41.734Z,100836.47
2023-05-09T03:33:47.024Z,100834.41
2023-05-09T03:34:50.689Z,100827.44
2023-05-09T03:35:54.288Z,100830.75
2023-05-09T03:36:58.015Z,100831.84
2023-05-09T03:38:01.760Z,100826.38
2023-05-09T03:39:05.415Z,100820.59
2023-05-09T03:40:10.277Z,100821.44
2023-05-09T03:41:17.443Z,100792.25
2023-05-09T03:42:21.097Z,100827.09
2023-05-09T03:43:24.776Z,100822.97
2023-05-09T03:44:28.575Z,100832.16
2023-05-09T03:45:32.235Z,100820.75
2023-05-09T03:46:38.133Z,100822.19
2023-05-09T03:47:41.918Z,100821.47
2023-05-09T03:48:47.479Z,100823.09
2023-05-09T03:49:51.133Z,100812.09
2023-05-09T03:50:54.839Z,100823.28
2023-05-09T03:51:58.524Z,100818.19
2023-05-09T03:53:02.229Z,100817.03
2023-05-09T03:54:06.102Z,100816.22
2023-05-09T03:55:10.814Z,100817.94
2023-05-09T03:56:14.723Z,100791.19
2023-05-09T03:57:18.331Z,100818.03
2023-05-09T03:58:22.045Z,100811.28
2023-05-09T03:59:25.815Z,100801.47
2023-05-09T04:00:29.598Z,100794.50
2023-05-09T04:01:33.353Z,100797.84
2023-05-09T04:02:37.263Z,100794.22
2023-05-09T04:03:41.103Z,100794.94
2023-05-09T04:04:46.777Z,100786.09
2023-05-09T04:05:50.525Z,100784.56
2023-05-09T04:06:54.222Z,100779.94
2023-05-09T04:07:58.071Z,100763.50
2023-05-09T04:09:01.888Z,100780.81
2023-05-09T04:10:06.056Z,100768.09
2023-05-09T04:11:09.656Z,100770.91
2023-05-09T04:12:13.373Z,100769.91
2023-05-09T04:13:17.353Z,100764.63
2023-05-09T04:14:21.213Z,100752.69
2023-05-09T04:15:25.022Z,100748.50
2023-05-09T04:16:28.843Z,100751.78
2023-05-09T04:17:32.557Z,100760.22
2023-05-09T04:18:36.474Z,100735.31
2023-05-09T04:19:40.223Z,100755.00
2023-05-09T04:20:45.574Z,100737.03
2023-05-09T04:21:49.303Z,100755.72
2023-05-09T04:22:52.926Z,100744.69
2023-05-09T04:23:56.614Z,100745.69
2023-05-09T04:25:00.305Z,100745.84
2023-05-09T04:26:03.990Z,100743.44
2023-05-09T04:27:07.632Z,100746.41
2023-05-09T04:28:11.480Z,100734.44
2023-05-09T04:29:15.187Z,100736.25
2023-05-09T04:30:19.172Z,100732.09
2023-05-09T04:31:22.942Z,100737.72
2023-05-09T04:32:26.774Z,100739.34
2023-05-09T04:33:30.588Z,100740.00
2023-05-09T04:34:34.257Z,100731.88
2023-05-09T04:35:38.872Z,100732.09
2023-05-09T04:36:44.373Z,100735.41
2023-05-09T04:37:48.052Z,100736.66
2023-05-09T04:38:51.657Z,100728.44
2023-05-09T04:39:55.289Z,100724.06
2023-05-09T04:40:58.944Z,100720.47
2023-05-09T04:42:02.708Z,100729.41
2023-05-09T04:43:06.500Z,100721.44
2023-05-09T04:44:10.172Z,100724.19
2023-05-09T04:45:13.983Z,100724.44
2023-05-09T04:46:17.872Z,100724.00
2023-05-09T04:47:21.599Z,100720.03
2023-05-09T04:48:25.231Z,100714.94
2023-05-09T04:49:28.834Z,100713.66
2023-05-09T04:50:32.557Z,100711.13
2023-05-09T04:51:36.276Z,100711.56
2023-05-09T04:52:41.643Z,100706.69
2023-05-09T04:53:45.332Z,100705.16
2023-05-09T04:54:49.033Z,100708.28
2023-05-09T04:55:52.675Z,100693.88
2023-05-09T04:57:03.162Z,100704.09
2023-05-09T04:58:11.072Z,100705.13
2023-05-09T04:59:14.761Z,100704.47
2023-05-09T05:00:18.726Z,100709.13
2023-05-09T05:01:22.391Z,100705.31
2023-05-09T05:02:26.137Z,100715.88
2023-05-09T05:03:29.959Z,100724.34
2023-05-09T05:04:33.737Z,100718.25
2023-05-09T05:05:37.897Z,100719.22
2023-05-09T05:06:41.630Z,100707.25
2023-05-09T05:07:46.930Z,100717.84
2023-05-09T05:08:50.629Z,100695.88
2023-05-09T05:09:54.272Z,100716.47
2023-05-09T05:10:58.340Z,100719.38
2023-05-09T05:12:03.637Z,100720.22
2023-05-09T05:13:08.086Z,100699.28
2023-05-09T05:14:11.838Z,100708.97
2023-05-09T05:15:16.006Z,100713.53
2023-05-09T05:16:19.877Z,100713.56
2023-05-09T05:17:23.608Z,100697.69
2023-05-09T05:18:27.358Z,100694.97
2023-05-09T05:19:31.092Z,100683.22
2023-05-09T05:20:35.490Z,100680.44
2023-05-09T05:21:39.142Z,100663.03
2023-05-09T05:22:42.833Z,100671.41
2023-05-09T05:23:48.183Z,100673.69
2023-05-09T05:24:51.913Z,100673.72
2023-05-09T05:25:55.608Z,100667.47
2023-05-09T05:26:59.260Z,100652.50
2023-05-09T05:28:02.957Z,100660.84
2023-05-09T05:29:06.702Z,100657.84
2023-05-09T05:30:11.285Z,100647.41
2023-05-09T05:31:14.904Z,100651.00
2023-05-09T05:32:18.643Z,100648.81
2023-05-09T05:33:22.281Z,100641.22
2023-05-09T05:34:26.029Z,100639.50
2023-05-09T05:35:29.724Z,100641.81
2023-05-09T05:36:33.432Z,100636.03
2023-05-09T05:37:37.101Z,100626.16
2023-05-09T05:38:40.900Z,100631.88
2023-05-09T05:39:46.399Z,100634.22
2023-05-09T05:40:50.100Z,100648.75
2023-05-09T05:41:53.749Z,100633.84
2023-05-09T05:42:57.363Z,100628.38
2023-05-09T05:44:01.032Z,100630.00
2023-05-09T05:45:04.874Z,100628.69
2023-05-09T05:46:08.696Z,100640.69
2023-05-09T05:47:12.350Z,100637.34
2023-05-09T05:48:16.426Z,100629.13
2023-05-09T05:49:20.069Z,100635.25
2023-05-09T05:50:23.818Z,100631.72
2023-05-09T05:51:27.587Z,100621.00
2023-05-09T05:52:31.731Z,100604.72
2023-05-09T05:53:35.373Z,100622.69
2023-05-09T05:54:39.479Z,100624.50
2023-05-09T05:55:44.804Z,100617.31
2023-05-09T05:56:48.572Z,100618.13
2023-05-09T05:57:52.232Z,100614.41
2023-05-09T05:58:55.871Z,100614.78
2023-05-09T05:59:59.541Z,100613.06
2023-05-09T06:01:03.234Z,100611.69
2023-05-09T06:02:07.582Z,100618.16
2023-05-09T06:03:14.774Z,100616.63
2023-05-09T06:04:18.707Z,100617.00
2023-05-09T06:05:22.547Z,100623.00
2023-05-09T06:06:27.726Z,100608.69
2023-05-09T06:07:31.484Z,100616.59
2023-05-09T06:08:35.102Z,100634.09
2023-05-09T06:09:38.850Z,100615.66
2023-05-09T06:10:44.415Z,100617.16
2023-05-09T06:11:48.100Z,100617.00
2023-05-09T06:12:51.964Z,100606.47
2023-05-09T06:13:55.836Z,100592.69
2023-05-09T06:14:59.468Z,100604.63
2023-05-09T06:16:15.043Z,100592.75
2023-05-09T06:17:22.775Z,100607.84
2023-05-09T06:18:33.432Z,100602.66
2023-05-09T20:03:03.192Z,100736.38
2023-05-09T20:04:06.921Z,100734.78
2023-05-09T20:05:11.074Z,100730.19
2023-05-09T20:06:14.732Z,100741.66
2023-05-09T20:07:18.842Z,100741.81
2023-05-09T20:08:22.699Z,100732.06
2023-05-09T20:09:26.438Z,100732.84
2023-05-09T20:10:30.087Z,100733.00
2023-05-09T20:11:33.793Z,100726.69
2023-05-09T20:12:37.492Z,100719.09
2023-05-09T20:13:41.240Z,100704.63
2023-05-09T20:14:45.180Z,100707.66
2023-05-09T20:15:49.185Z,100714.75
2023-05-09T20:16:52.872Z,100725.03
2023-05-09T20:17:56.560Z,100726.63
2023-05-09T20:19:01.891Z,100719.06
2023-05-09T20:20:06.184Z,100709.66
2023-05-09T20:21:09.901Z,100711.75
2023-05-09T20:22:13.582Z,100710.47
2023-05-09T20:23:17.280Z,100707.25
2023-05-09T20:24:21.193Z,100702.09
2023-05-09T20:25:25.091Z,100702.91
2023-05-09T20:26:28.746Z,100714.81
2023-05-09T20:27:32.397Z,100708.19
2023-05-09T20:28:36.084Z,100699.78
2023-05-09T20:29:39.768Z,100711.06
2023-05-09T20:30:43.428Z,100702.53
2023-05-09T20:31:47.158Z,100704.75
2023-05-09T20:32:51.062Z,100713.50
2023-05-09T20:33:54.785Z,100707.97
2023-05-09T20:35:00.104Z,100700.88
2023-05-09T20:36:03.728Z,100708.78
2023-05-09T20:37:07.490Z,100701.34
2023-05-09T20:38:11.470Z,100708.09
2023-05-09T20:39:15.166Z,100705.00
2023-05-09T20:40:19.042Z,100703.72
2023-05-09T20:41:23.062Z,100694.75
2023-05-09T20:42:26.717Z,100703.63
2023-05-09T20:43:30.536Z,100698.91
2023-05-09T20:44:34.548Z,100707.97
2023-05-09T20:45:38.299Z,100707.28
2023-05-09T20:46:42.107Z,100696.41
2023-05-09T20:47:45.849Z,100710.16
2023-05-09T20:48:49.571Z,100705.47
2023-05-09T20:49:53.319Z,100699.16
2023-05-09T20:50:58.628Z,100690.78
2023-05-09T20:52:02.320Z,100708.78
2023-05-09T20:53:05.979Z,100712.13
2023-05-09T20:54:09.819Z,100714.41
2023-05-09T20:55:13.678Z,100723.34
2023-05-09T20:56:17.475Z,100708.50
2023-05-09T20:57:21.213Z,100721.53
2023-05-09T20:58:24.822Z,100732.19
2023-05-09T20:59:28.467Z,100742.41
2023-05-09T21:00:32.291Z,100735.28
2023-05-09T21:01:35.907Z,100742.06
2023-05-09T21:02:39.743Z,100745.16
2023-05-09T21:03:43.513Z,100740.94
2023-05-09T21:04:47.177Z,100745.72
2023-05-09T21:05:50.938Z,100741.03
2023-05-09T21:06:56.240Z,100743.44
2023-05-09T21:07:59.885Z,100740.38
2023-05-09T21:09:03.907Z,100741.84
2023-05-09T21:10:08.940Z,100740.69
2023-05-09T21:11:12.656Z,100744.59
2023-05-09T21:12:16.492Z,100740.69
2023-05-09T21:13:20.356Z,100745.41
2023-05-09T21:14:24.042Z,100745.41
2023-05-09T21:15:27.783Z,100748.56
2023-05-09T21:16:31.536Z,100743.41
2023-05-09T21:17:35.275Z,100747.44
2023-05-09T21:18:39.035Z,100734.09
2023-05-09T21:19:42.718Z,100751.66
2023-05-09T21:20:46.427Z,100756.03
2023-05-09T21:21:50.097Z,100740.44
2023-05-09T21:22:55.430Z,100754.41
2023-05-09T21:23:59.159Z,100751.88
2023-05-09T21:25:02.784Z,100761.19
2023-05-09T21:26:06.692Z,100765.41
2023-05-09T21:27:10.460Z,100761.41
2023-05-09T21:28:14.073Z,100759.25
2023-05-09T21:29:17.834Z,100746.56
2023-05-09T21:30:21.624Z,100771.53
2023-05-09T21:31:25.525Z,100776.25
2023-05-09T21:32:29.157Z,100776.91
2023-05-09T21:33:32.840Z,100772.19
2023-05-09T21:34:36.560Z,100762.81
2023-05-09T21:35:40.184Z,100771.88
2023-05-09T21:36:43.888Z,100760.19
2023-05-09T21:37:47.636Z,100762.94
2023-05-09T21:38:52.965Z,100772.81
2023-05-09T21:39:56.603Z,100761.44
2023-05-09T21:41:00.198Z,100767.31
2023-05-09T21:42:03.892Z,100771.19
2023-05-09T21:43:07.489Z,100761.34
2023-05-09T21:44:11.100Z,100757.63
2023-05-09T21:45:14.966Z,100761.88
2023-05-09T21:46:18.632Z,100769.25
2023-05-09T21:47:22.524Z,100771.19
2023-05-09T21:48:26.410Z,100763.63
2023-05-09T21:49:30.148Z,100759.38
2023-05-09T21:50:33.954Z,100752.47
2023-05-09T21:51:37.680Z,100762.34
2023-05-09T21:52:41.446Z,100752.34
2023-05-09T21:53:45.183Z,100750.41
2023-05-09T21:54:50.598Z,100750.75
2023-05-09T21:55:54.238Z,100742.16
2023-05-09T21:56:57.890Z,100750.75
2023-05-09T21:58:01.622Z,100749.59
2023-05-09T21:59:05.431Z,100736.72
2023-05-09T22:00:10.477Z,100745.00
2023-05-09T22:01:14.252Z,100741.66
2023-05-09T22:02:18.224Z,100722.41
2023-05-09T22:03:22.071Z,100747.38
2023-05-09T22:04:25.818Z,100743.97
2023-05-09T22:05:29.558Z,100750.28
2023-05-09T22:06:33.351Z,100749.59
2023-05-09T22:07:37.141Z,100749.94
2023-05-09T22:08:40.842Z,100748.31
2023-05-09T22:09:44.552Z,100752.22
2023-05-09T22:10:49.808Z,100754.97
2023-05-09T22:11:53.947Z,100753.03
2023-05-09T22:12:57.707Z,100762.09
2023-05-09T22:14:01.551Z,100761.59
2023-05-09T22:15:05.938Z,100767.59
2023-05-09T22:16:09.716Z,100767.00
2023-05-09T22:17:13.384Z,100765.06
2023-05-09T22:18:17.062Z,100782.63
2023-05-09T22:19:20.704Z,100785.84
2023-05-09T22:20:24.644Z,100785.50
2023-05-09T22:21:28.256Z,100762.63
2023-05-09T22:22:31.983Z,100790.19
2023-05-09T22:23:35.752Z,100785.50
2023-05-09T22:24:39.994Z,100767.44
2023-05-09T22:25:43.612Z,100775.03
2023-05-09T22:26:48.920Z,100783.28
2023-05-09T22:27:52.786Z,100786.72
2023-05-09T22:28:56.475Z,100785.91
2023-05-09T22:30:00.188Z,100782.19
2023-05-09T22:31:05.632Z,100782.00
2023-05-09T22:32:09.356Z,100787.84
2023-05-09T22:33:13.062Z,100789.81
2023-05-09T22:34:16.926Z,100794.53
2023-05-09T22:35:20.627Z,100793.34
2023-05-09T22:36:24.326Z,100782.72
2023-05-09T22:37:28.042Z,100795.66
2023-05-09T22:38:31.719Z,100791.06
2023-05-09T22:39:35.497Z,100785.09
2023-05-09T22:40:39.264Z,100799.16
2023-05-09T22:41:42.917Z,100793.31
2023-05-09T22:42:48.238Z,100798.44
2023-05-09T22:43:51.925Z,100796.38
2023-05-09T22:44:55.719Z,100795.78
2023-05-09T22:45:59.475Z,100792.91
2023-05-09T22:47:03.143Z,100795.66
2023-05-09T22:48:07.387Z,100801.59
2023-05-09T22:49:11.142Z,100807.91
2023-05-09T22:50:15.066Z,100818.94
2023-05-09T22:51:19.227Z,100817.34
2023-05-09T22:52:22.926Z,100825.44
2023-05-09T22:53:26.633Z,100823.00
2023-05-09T22:54:30.348Z,100820.72
2023-05-09T22:55:34.053Z,100828.78
2023-05-09T22:56:37.665Z,100822.84
2023-05-09T22:57:42.010Z,100820.09
2023-05-09T22:58:47.383Z,100822.16
2023-05-09T22:59:51.236Z,100828.94
2023-05-09T23:00:55.032Z,100835.59
2023-05-09T23:01:59.397Z,100831.22
2023-05-09T23:03:03.568Z,100831.22
2023-05-09T23:04:07.320Z,100841.41
2023-05-09T23:05:11.242Z,100840.75
2023-05-09T23:06:14.886Z,100838.81
2023-05-09T23:07:18.623Z,100850.47
2023-05-09T23:08:22.209Z,100847.06
2023-05-09T23:09:25.830Z,100854.19
2023-05-09T23:10:29.531Z,100851.09
2023-05-09T23:11:33.227Z,100862.56
2023-05-09T23:12:36.855Z,100861.41
2023-05-09T23:13:40.475Z,100842.75
2023-05-09T23:14:45.763Z,100866.81
2023-05-09T23:15:49.518Z,100875.19
2023-05-09T23:16:53.219Z,100880.03
2023-05-09T23:17:56.900Z,100882.53
2023-05-09T23:19:00.664Z,100890.44
2023-05-09T23:20:04.488Z,100884.59
2023-05-09T23:21:08.241Z,100894.44
2023-05-09T23:22:11.957Z,100876.38
2023-05-09T23:23:15.687Z,100879.28
2023-05-09T23:24:19.368Z,100886.53
2023-05-09T23:25:23.234Z,100881.72
2023-05-09T23:26:26.939Z,100884.78
2023-05-09T23:27:30.696Z,100879.03
2023-05-09T23:28:34.416Z,100867.84
2023-05-09T23:29:38.051Z,100876.06
2023-05-09T23:30:43.373Z,100890.91
2023-05-09T23:31:47.171Z,100879.63
2023-05-09T23:32:51.008Z,100891.09
2023-05-09T23:33:54.636Z,100879.47
2023-05-09T23:34:58.253Z,100880.69
2023-05-09T23:36:01.888Z,100887.47
2023-05-09T23:37:05.929Z,100886.81
2023-05-09T23:38:09.708Z,100894.38
2023-05-09T23:39:13.360Z,100884.25
2023-05-09T23:40:17.236Z,100899.88
2023-05-09T23:41:21.335Z,100893.56
2023-05-09T23:42:24.952Z,100904.75
2023-05-09T23:43:28.839Z,100897.94
2023-05-09T23:44:32.551Z,100914.75
2023-05-09T23:45:36.184Z,100910.06
2023-05-09T23:46:41.512Z,100922.66
2023-05-09T23:47:45.346Z,100902.66
2023-05-09T23:48:49.070Z,100922.00
2023-05-09T23:49:52.756Z,100925.22
2023-05-09T23:50:56.493Z,100918.44
2023-05-09T23:52:00.193Z,100925.22
2023-05-09T23:53:03.831Z,100922.47
2023-05-09T23:54:07.697Z,100912.44
2023-05-09T23:55:11.601Z,100926.50
2023-05-09T23:56:15.299Z,100927.97
2023-05-09T23:57:19.106Z,100928.31
2023-05-09T23:58:22.816Z,100931.88
2023-05-09T23:59:26.539Z,100933.22
